Time;durP1;ratioP1;P1;durP2;ratioP2;P2;SDS_P1;SDS_P2;PMS_P1;PMS_P2;Temp;Humidity;BMP_temperature;BMP_pressure;BME280_temperature;BME280_humidity;BME280_pressure;Samples;Min_cycle;Max_cycle;Signal;HPM_P1;HPM_P2
2021/03/07 00:02:59;;;;;;;1.33;1.23;;;;;;;1.36;42.69;100636.75;6191075;28;20303;-74
2021/03/07 00:06:03;;;;;;;0.90;0.90;;;;;;;1.39;42.37;100628.34;6190816;28;20187;-74
2021/03/07 00:09:10;;;;;;;1.47;1.00;;;;;;;1.16;42.64;100620.84;6190758;28;20193;-74
2021/03/07 00:12:18;;;;;;;6.67;1.17;;;;;;;1.13;42.42;100607.75;6190902;28;20228;-74
2021/03/07 00:15:23;;;;;;;1.67;1.30;;;;;;;1.18;42.15;100608.09;6190582;28;20189;-74
2021/03/07 00:18:35;;;;;;;2.73;1.30;;;;;;;1.07;43.87;100613.78;6189552;28;20424;-75
2021/03/07 00:21:39;;;;;;;4.93;1.47;;;;;;;1.08;42.88;100618.13;6190543;28;20189;-74
2021/03/07 00:24:43;;;;;;;1.00;1.00;;;;;;;1.02;43.19;100613.44;6190664;28;20190;-74
2021/03/07 00:27:47;;;;;;;1.10;1.10;;;;;;;1.02;42.81;100620.63;6190499;28;20256;-74
2021/03/07 00:30:50;;;;;;;1.77;1.10;;;;;;;0.94;42.78;100610.69;6189176;28;20245;-75
2021/03/07 00:33:53;;;;;;;5.40;1.20;;;;;;;1.00;43.67;100607.34;6189530;28;20196;-74
2021/03/07 00:36:57;;;;;;;1.03;0.93;;;;;;;1.01;43.80;100630.53;6190456;28;20193;-74
2021/03/07 00:40:00;;;;;;;1.43;1.27;;;;;;;1.12;43.47;100624.88;6189359;28;20262;-74
2021/03/07 00:43:06;;;;;;;4.87;1.20;;;;;;;0.95;43.49;100604.31;6190147;28;20198;-74
2021/03/07 00:46:10;;;;;;;4.80;1.30;;;;;;;0.82;42.97;100614.69;6190269;28;20226;-74
2021/03/07 00:49:16;;;;;;;2.83;1.10;;;;;;;0.81;43.39;100593.34;6190148;28;20218;-74
2021/03/07 00:52:19;;;;;;;3.70;1.07;;;;;;;0.90;43.27;100601.25;6190230;28;20189;-74
2021/03/07 00:55:23;;;;;;;12.57;1.20;;;;;;;0.76;42.99;100583.06;6189754;28;20227;-74
2021/03/07 00:58:29;;;;;;;1.90;0.93;;;;;;;0.83;43.21;100584.13;6187945;28;20464;-74
2021/03/07 01:01:34;;;;;;;1.53;0.90;;;;;;;0.78;42.46;100567.63;6189580;28;20189;-76
2021/03/07 01:04:38;;;;;;;1.37;0.90;;;;;;;0.80;41.85;100589.78;6188818;28;20306;-74
2021/03/07 01:07:41;;;;;;;1.00;1.00;;;;;;;0.79;42.28;100581.91;6189248;28;20322;-74
2021/03/07 01:10:46;;;;;;;2.97;1.30;;;;;;;0.83;42.41;100589.47;6188597;28;20410;-74
2021/03/07 01:13:51;;;;;;;8.07;1.47;;;;;;;0.84;41.07;100584.97;6189882;28;20190;-74
2021/03/07 01:16:54;;;;;;;6.03;1.10;;;;;;;0.85;41.40;100587.47;6188564;28;20195;-74
2021/03/07 01:19:58;;;;;;;3.40;0.90;;;;;;;0.73;41.86;100583.38;6189674;28;20189;-74
2021/03/07 01:23:01;;;;;;;2.43;0.90;;;;;;;0.80;40.25;100605.91;6188497;28;20448;-74
2021/03/07 01:26:06;;;;;;;1.17;1.00;;;;;;;0.88;40.20;100605.97;6189726;28;20213;-74
2021/03/07 01:29:10;;;;;;;1.97;0.80;;;;;;;0.88;39.52;100595.22;6189255;28;20260;-74
2021/03/07 01:32:14;;;;;;;1.80;1.20;;;;;;;0.82;39.49;100595.88;6189421;28;20256;-74
2021/03/07 01:35:19;;;;;;;2.00;0.90;;;;;;;0.70;39.10;100605.19;6188400;28;20387;-74
2021/03/07 01:38:22;;;;;;;4.23;0.93;;;;;;;0.71;38.79;100590.78;6188262;28;20265;-74
2021/03/07 01:41:25;;;;;;;6.10;1.00;;;;;;;0.84;37.60;100596.56;6188839;28;20465;-74
2021/03/07 01:44:30;;;;;;;5.27;0.90;;;;;;;0.84;36.47;100596.56;6190113;28;20212;-74
2021/03/07 01:47:34;;;;;;;1.27;1.10;;;;;;;0.83;35.75;100562.63;6189432;28;20337;-75
2021/03/07 01:50:41;;;;;;;3.30;1.10;;;;;;;0.87;35.53;100582.81;6188466;28;20236;-75
2021/03/07 01:53:44;;;;;;;3.80;1.00;;;;;;;0.82;34.98;100569.03;6189049;28;20252;-75
2021/03/07 01:56:51;;;;;;;2.70;1.00;;;;;;;0.92;35.48;100579.63;6188508;28;20187;-74
2021/03/07 01:59:59;;;;;;;2.37;0.90;;;;;;;0.94;35.63;100562.34;6189373;28;20229;-74
2021/03/07 02:03:05;;;;;;;1.00;1.00;;;;;;;0.88;35.26;100564.81;6189033;28;20258;-74
2021/03/07 02:06:14;;;;;;;1.00;1.00;;;;;;;0.82;35.30;100547.53;6188455;28;20213;-74
2021/03/07 02:09:18;;;;;;;0.93;0.93;;;;;;;0.77;36.48;100552.53;6187784;28;20251;-74
2021/03/07 02:12:23;;;;;;;1.57;1.00;;;;;;;0.77;36.29;100541.78;6193067;28;20190;-74
2021/03/07 02:15:30;;;;;;;6.17;1.27;;;;;;;0.74;36.74;100523.31;6193537;28;20260;-74
2021/03/07 02:18:34;;;;;;;1.00;1.00;;;;;;;0.76;36.73;100544.63;6193583;28;20194;-74
2021/03/07 02:21:46;;;;;;;1.00;1.00;;;;;;;0.69;37.45;100547.13;6192608;28;20488;-74
2021/03/07 02:24:50;;;;;;;2.33;1.07;;;;;;;0.57;37.33;100526.91;6193030;28;20213;-74
2021/03/07 02:27:54;;;;;;;3.37;1.30;;;;;;;0.72;37.35;100536.03;6193068;28;20217;-74
2021/03/07 02:30:58;;;;;;;1.30;0.83;;;;;;;0.57;37.84;100518.88;6193399;28;20189;-74
2021/03/07 02:34:07;;;;;;;0.87;0.87;;;;;;;0.55;37.89;100499.41;6192978;28;20193;-74
2021/03/07 02:37:14;;;;;;;1.10;1.00;;;;;;;0.47;37.83;100523.50;6192212;28;20208;-74
2021/03/07 02:40:22;;;;;;;5.77;1.07;;;;;;;0.51;37.89;100514.97;6193130;28;20190;-74
2021/03/07 02:43:50;;;;;;;1.63;0.87;;;;;;;0.46;37.78;100511.13;6191652;28;20188;-74
2021/03/07 02:46:55;;;;;;;1.30;1.00;;;;;;;0.46;38.04;100527.22;6207870;28;20205;-74
2021/03/07 02:50:01;;;;;;;2.27;1.10;;;;;;;0.48;38.47;100517.16;6191783;28;20196;-74
2021/03/07 02:53:09;;;;;;;1.43;0.90;;;;;;;0.40;39.02;100517.09;6191554;28;20252;-74
2021/03/07 02:56:16;;;;;;;4.57;1.20;;;;;;;0.44;39.35;100529.19;6192557;28;20189;-74
2021/03/07 02:59:23;;;;;;;4.63;1.00;;;;;;;0.36;40.20;100526.50;6191358;28;20476;-74
2021/03/07 03:02:30;;;;;;;2.23;0.93;;;;;;;0.38;40.87;100532.53;6192032;28;20205;-74
2021/03/07 03:05:36;;;;;;;2.20;0.90;;;;;;;0.32;41.90;100522.44;6192518;28;20192;-74
2021/03/07 03:08:42;;;;;;;5.50;1.20;;;;;;;0.28;41.88;100534.50;6191782;28;20221;-74
2021/03/07 03:11:51;;;;;;;4.43;1.10;;;;;;;0.43;43.56;100519.47;6192466;28;20189;-74
2021/03/07 03:14:55;;;;;;;2.13;1.07;;;;;;;0.37;44.10;100528.16;6192360;28;20190;-74
2021/03/07 03:17:59;;;;;;;1.77;1.10;;;;;;;0.45;44.41;100525.53;6190945;28;20481;-74
2021/03/07 03:21:06;;;;;;;1.33;0.80;;;;;;;0.51;44.62;100530.25;6191879;28;20194;-74
2021/03/07 03:24:13;;;;;;;1.47;1.00;;;;;;;0.34;45.02;100525.78;6191651;28;20190;-74
2021/03/07 03:27:17;;;;;;;7.93;1.60;;;;;;;0.47;45.52;100523.50;6191943;28;20193;-73
2021/03/07 03:30:23;;;;;;;1.33;1.00;;;;;;;0.50;44.34;100528.56;6191955;28;20196;-73
2021/03/07 03:33:29;;;;;;;2.00;1.20;;;;;;;0.50;45.11;100518.69;6191557;28;20268;-74
2021/03/07 03:36:34;;;;;;;3.30;1.00;;;;;;;0.57;45.73;100518.88;6191069;28;20197;-75
2021/03/07 03:39:39;;;;;;;1.53;1.00;;;;;;;0.33;45.30;100511.56;6191426;28;20197;-74
2021/03/07 03:42:45;;;;;;;2.23;1.20;;;;;;;0.32;46.47;100514.38;6191751;28;20190;-74
2021/03/07 03:45:55;;;;;;;4.73;1.10;;;;;;;0.18;45.44;100528.41;6191847;28;20196;-74
2021/03/07 03:49:03;;;;;;;1.00;1.00;;;;;;;0.16;45.70;100514.28;6191055;28;20214;-74
2021/03/07 03:52:09;;;;;;;6.80;1.47;;;;;;;0.20;46.57;100515.66;6191449;28;20277;-75
2021/03/07 03:55:20;;;;;;;2.77;1.03;;;;;;;0.19;46.84;100525.53;6190982;28;20351;-75
2021/03/07 03:58:29;;;;;;;1.20;1.20;;;;;;;0.22;46.52;100498.41;6190145;28;20489;-75
2021/03/07 04:01:36;;;;;;;8.07;1.00;;;;;;;0.36;45.47;100503.16;6191609;28;20216;-75
2021/03/07 04:04:40;;;;;;;8.50;1.10;;;;;;;0.36;45.11;100505.03;6189719;28;20421;-73
2021/03/07 04:07:46;;;;;;;6.07;1.07;;;;;;;0.34;45.64;100501.63;6190972;28;20216;-74
2021/03/07 04:10:51;;;;;;;0.90;0.90;;;;;;;0.36;46.44;100499.66;6190865;28;20196;-74
2021/03/07 04:13:55;;;;;;;0.90;0.90;;;;;;;0.34;46.93;100515.06;6190903;28;20230;-75
2021/03/07 04:17:02;;;;;;;1.00;1.00;;;;;;;0.21;46.55;100514.63;6190462;28;20188;-73
2021/03/07 04:20:08;;;;;;;0.97;0.97;;;;;;;0.32;46.64;100519.75;6190403;28;20200;-75
2021/03/07 04:23:12;;;;;;;3.40;1.20;;;;;;;-0.02;45.47;100517.84;6190339;28;20469;-74
2021/03/07 04:26:15;;;;;;;1.17;1.10;;;;;;;-0.03;46.04;100520.69;6189301;28;20412;-74
2021/03/07 04:29:21;;;;;;;0.97;0.97;;;;;;;0.06;45.94;100529.63;6190506;28;20277;-74
2021/03/07 04:32:26;;;;;;;2.73;1.33;;;;;;;-0.09;45.86;100527.53;6189202;28;20188;-74
2021/03/07 04:35:29;;;;;;;2.17;1.30;;;;;;;-0.01;46.23;100524.91;6190376;28;20192;-74
2021/03/07 04:38:34;;;;;;;2.63;1.10;;;;;;;0.00;46.59;100515.84;6190329;28;20224;-74
2021/03/07 04:41:37;;;;;;;3.77;1.03;;;;;;;-0.03;46.20;100523.38;6190145;28;20193;-73
2021/03/07 04:44:41;;;;;;;2.47;1.10;;;;;;;0.07;46.70;100517.91;6190112;28;20189;-75
2021/03/07 04:47:44;;;;;;;1.53;1.30;;;;;;;0.04;45.29;100520.91;6189661;28;20436;-75
2021/03/07 04:50:48;;;;;;;2.77;1.30;;;;;;;-0.09;45.99;100515.94;6189981;28;20195;-74
2021/03/07 04:53:51;;;;;;;1.27;1.17;;;;;;;-0.01;45.74;100513.34;6188902;28;20503;-75
2021/03/07 04:56:54;;;;;;;1.73;0.97;;;;;;;-0.30;46.51;100527.00;6190119;28;20189;-74
2021/03/07 04:59:59;;;;;;;1.80;0.97;;;;;;;-0.27;46.54;100523.19;6189750;28;20192;-74
2021/03/07 05:03:02;;;;;;;1.00;1.00;;;;;;;-0.27;45.81;100517.81;6188934;28;20258;-73
2021/03/07 05:06:06;;;;;;;1.00;1.00;;;;;;;-0.29;46.16;100514.47;6190137;28;20245;-75
2021/03/07 05:09:10;;;;;;;2.17;1.60;;;;;;;-0.08;45.56;100518.47;6190422;28;20214;-74
2021/03/07 05:12:13;;;;;;;6.30;1.30;;;;;;;-0.25;46.23;100505.94;6191950;28;20188;-75
2021/03/07 05:15:39;;;;;;;1.10;1.10;;;;;;;-0.35;45.64;100515.06;6191440;28;20459;-75
2021/03/07 05:18:42;;;;;;;1.10;0.90;;;;;;;-0.36;45.59;100514.22;6191473;28;20197;-75
2021/03/07 05:21:45;;;;;;;4.17;1.13;;;;;;;-0.37;45.72;100528.63;6192045;28;20228;-75
2021/03/07 05:24:48;;;;;;;2.80;1.10;;;;;;;-0.33;45.82;100508.56;6191513;28;20219;-75
2021/03/07 05:27:51;;;;;;;2.57;1.20;;;;;;;-0.29;45.22;100530.53;6192730;28;20255;-75
2021/03/07 05:30:55;;;;;;;1.70;1.10;;;;;;;-0.35;46.42;100537.38;6193494;28;20188;-75
2021/03/07 05:33:59;;;;;;;1.80;1.00;;;;;;;-0.36;45.46;100524.94;6189817;28;20188;-75
2021/03/07 05:37:02;;;;;;;0.90;0.90;;;;;;;-0.28;45.86;100527.69;6189442;28;20205;-75
2021/03/07 05:40:07;;;;;;;1.17;1.07;;;;;;;-0.36;46.22;100535.66;6189168;28;20199;-75
2021/03/07 05:43:13;;;;;;;0.97;0.97;;;;;;;-0.44;45.93;100522.22;6189428;28;20187;-74
2021/03/07 05:46:18;;;;;;;1.60;1.27;;;;;;;-0.36;45.40;100524.94;6191952;28;20189;-73
2021/03/07 05:49:22;;;;;;;1.70;0.90;;;;;;;-0.31;46.11;100508.41;6193771;28;20219;-74
2021/03/07 05:52:26;;;;;;;0.83;0.83;;;;;;;-0.24;46.22;100529.09;6194164;28;20263;-74
2021/03/07 05:55:30;;;;;;;1.93;1.00;;;;;;;-0.26;46.10;100520.38;6194244;28;20194;-75
2021/03/07 05:58:33;;;;;;;4.47;1.10;;;;;;;-0.18;45.75;100517.72;6192801;28;20428;-75
2021/03/07 06:01:37;;;;;;;3.37;1.30;;;;;;;-0.35;46.48;100521.28;6192498;28;20252;-75
2021/03/07 06:04:42;;;;;;;1.40;1.30;;;;;;;-0.37;47.22;100520.59;6192621;28;20598;-74
2021/03/07 06:08:08;;;;;;;5.20;1.10;;;;;;;-0.29;46.59;100542.13;6193720;28;20219;-74
2021/03/07 06:11:31;;;;;;;3.13;1.00;;;;;;;-0.29;47.16;100519.81;6192264;28;20188;-74
2021/03/07 06:14:34;;;;;;;4.00;1.10;;;;;;;-0.33;47.34;100519.28;6193601;28;20207;-74
2021/03/07 06:17:42;;;;;;;3.43;1.10;;;;;;;-0.21;47.13;100528.78;6193628;28;20190;-74
2021/03/07 06:20:47;;;;;;;1.17;1.03;;;;;;;-0.32;47.58;100515.63;6193475;28;20196;-74
2021/03/07 06:23:51;;;;;;;2.10;1.13;;;;;;;-0.18;47.75;100517.72;6193209;28;20432;-74
2021/03/07 06:27:04;;;;;;;2.47;1.10;;;;;;;-0.30;47.69;100524.34;6192338;28;20265;-76
2021/03/07 06:30:12;;;;;;;1.20;1.10;;;;;;;-0.25;47.79;100511.31;6192909;28;20217;-74
2021/03/07 06:33:32;;;;;;;0.93;0.93;;;;;;;-0.15;48.03;100512.06;6192879;28;20228;-74
2021/03/07 06:36:37;;;;;;;1.20;1.10;;;;;;;-0.13;47.88;100501.19;6191825;28;20377;-74
2021/03/07 06:39:40;;;;;;;0.90;0.90;;;;;;;-0.24;47.94;100506.78;6192676;28;20255;-74
2021/03/07 06:42:44;;;;;;;0.83;0.83;;;;;;;-0.14;48.72;100513.75;6192901;28;20196;-74
2021/03/07 06:45:47;;;;;;;4.33;1.10;;;;;;;-0.09;48.65;100500.72;6192774;28;20225;-74
2021/03/07 06:48:51;;;;;;;0.80;0.80;;;;;;;0.00;48.74;100510.47;6191491;28;20276;-75
2021/03/07 06:52:10;;;;;;;1.80;1.40;;;;;;;0.08;49.02;100522.28;6192769;28;20226;-75
2021/03/07 06:55:15;;;;;;;0.73;0.73;;;;;;;0.16;48.38;100519.63;6192203;28;20220;-74
2021/03/07 06:58:18;;;;;;;1.00;1.00;;;;;;;0.21;48.30;100533.41;6190311;28;20250;-75
2021/03/07 07:01:21;;;;;;;2.53;1.00;;;;;;;0.16;48.94;100541.09;6191639;28;20189;-74
2021/03/07 07:04:40;;;;;;;5.10;1.10;;;;;;;0.27;49.07;100533.66;6190986;28;20463;-75
2021/03/07 07:07:48;;;;;;;1.37;1.00;;;;;;;0.25;48.35;100537.47;6192637;28;20244;-75
2021/03/07 07:11:03;;;;;;;2.20;0.97;;;;;;;0.35;48.59;100546.25;6191362;28;20213;-75
2021/03/07 07:14:06;;;;;;;0.80;0.80;;;;;;;0.21;48.13;100549.50;6192042;28;20197;-75
2021/03/07 07:17:12;;;;;;;1.20;0.83;;;;;;;0.33;48.30;100561.69;6191993;28;20266;-75
2021/03/07 07:20:18;;;;;;;1.33;1.23;;;;;;;0.40;47.77;100577.00;6192182;28;20246;-75
2021/03/07 07:23:22;;;;;;;1.10;1.00;;;;;;;0.36;48.13;100574.81;6192202;28;20230;-74
2021/03/07 07:26:25;;;;;;;1.20;1.20;;;;;;;0.42;48.01;100579.50;6190759;28;20526;-74
2021/03/07 07:29:30;;;;;;;3.30;1.03;;;;;;;0.41;48.17;100577.84;6191848;28;20263;-74
2021/03/07 07:32:40;;;;;;;1.23;1.10;;;;;;;0.60;49.09;100585.66;6191605;28;20194;-74
2021/03/07 07:35:45;;;;;;;3.27;1.20;;;;;;;0.49;48.59;100575.19;6191447;28;20187;-74
2021/03/07 07:38:51;;;;;;;7.90;1.43;;;;;;;0.49;48.48;100564.44;6206678;28;20217;-75
2021/03/07 07:41:55;;;;;;;2.53;1.10;;;;;;;0.55;48.70;100579.94;6190701;28;20417;-74
2021/03/07 07:45:01;;;;;;;2.40;1.33;;;;;;;0.70;48.17;100591.75;6191842;28;20189;-74
2021/03/07 07:48:05;;;;;;;1.00;0.90;;;;;;;0.60;44.85;100594.56;6190976;28;20207;-75
2021/03/07 07:51:38;;;;;;;1.70;0.90;;;;;;;0.46;41.48;100595.13;6190988;28;20222;-77
2021/03/07 07:54:49;;;;;;;1.80;1.00;;;;;;;0.52;42.33;100607.09;6191515;28;20188;-75
2021/03/07 07:57:52;;;;;;;2.80;1.00;;;;;;;0.32;41.67;100644.03;6189882;28;20268;-75
2021/03/07 08:00:55;;;;;;;0.80;0.80;;;;;;;0.34;40.14;100644.72;6190636;28;20230;-75
2021/03/07 08:04:00;;;;;;;8.90;1.37;;;;;;;0.12;39.53;100630.94;6190886;28;20312;-75
2021/03/07 08:07:09;;;;;;;6.27;1.20;;;;;;;0.21;39.22;100630.00;6190926;28;20192;-75
2021/03/07 08:10:48;;;;;;;2.43;1.00;;;;;;;0.07;38.85;100654.72;6189968;28;20240;-75
2021/03/07 08:13:52;;;;;;;0.73;0.73;;;;;;;-0.10;40.31;100649.19;6189638;28;20187;-74
2021/03/07 08:16:55;;;;;;;2.50;1.00;;;;;;;0.12;39.56;100661.31;6190681;28;20227;-75
2021/03/07 08:19:59;;;;;;;1.07;1.07;;;;;;;0.09;40.34;100653.56;6190405;28;20192;-75
2021/03/07 08:23:04;;;;;;;8.03;1.20;;;;;;;0.08;40.19;100651.03;6189220;28;20187;-75
2021/03/07 08:26:08;;;;;;;13.63;1.13;;;;;;;0.13;40.19;100675.56;6190463;28;20227;-75
2021/03/07 08:29:54;;;;;;;0.80;0.80;;;;;;;-0.18;40.64;100662.50;6190448;28;20222;-74
2021/03/07 08:33:24;;;;;;;1.13;1.13;;;;;;;-0.02;40.55;100677.94;6190368;28;20187;-74
2021/03/07 08:36:27;;;;;;;4.20;1.30;;;;;;;0.02;41.38;100651.66;6190370;28;20192;-74
2021/03/07 08:39:31;;;;;;;2.50;0.80;;;;;;;-0.10;40.48;100677.84;6189893;28;20230;-75
2021/03/07 08:42:35;;;;;;;3.10;0.87;;;;;;;-0.11;40.50;100677.03;6190240;28;20189;-74
2021/03/07 08:45:59;;;;;;;0.73;0.73;;;;;;;-0.07;41.12;100681.06;6189844;28;20192;-74
2021/03/07 08:49:09;;;;;;;4.87;1.30;;;;;;;-0.23;41.34;100696.97;6189045;28;20221;-75
2021/03/07 08:52:14;;;;;;;1.03;1.03;;;;;;;-0.28;41.05;100688.56;6190141;28;20188;-75
2021/03/07 08:55:18;;;;;;;6.60;0.90;;;;;;;0.05;41.37;100705.00;6188450;28;20189;-75
2021/03/07 08:58:21;;;;;;;3.87;0.90;;;;;;;-0.02;41.32;100708.28;6189533;28;20197;-75
2021/03/07 09:01:25;;;;;;;1.97;0.80;;;;;;;-0.33;41.24;100716.81;6189820;28;20224;-75
2021/03/07 09:04:38;;;;;;;1.90;0.73;;;;;;;-0.03;42.00;100711.94;6188841;28;20239;-75
2021/03/07 09:07:41;;;;;;;3.00;1.10;;;;;;;-0.07;41.63;100713.25;6189646;28;20201;-74
2021/03/07 09:10:47;;;;;;;7.37;1.63;;;;;;;-0.08;41.26;100733.00;6188233;28;20504;-76
2021/03/07 09:13:50;;;;;;;1.87;0.83;;;;;;;-0.10;41.87;100732.31;6188809;28;20454;-74
2021/03/07 09:16:53;;;;;;;2.87;1.07;;;;;;;-0.05;41.93;100762.22;6189351;28;20196;-74
2021/03/07 09:19:57;;;;;;;2.40;0.90;;;;;;;-0.11;41.60;100748.56;6187395;28;20213;-74
2021/03/07 09:23:01;;;;;;;5.63;0.97;;;;;;;0.08;42.15;100742.25;6188561;28;20188;-74
2021/03/07 09:26:08;;;;;;;5.60;0.90;;;;;;;-0.07;41.86;100734.72;6189127;28;20188;-74
2021/03/07 09:29:12;;;;;;;2.10;1.00;;;;;;;-0.04;41.99;100734.41;6188037;28;20235;-74
2021/03/07 09:32:24;;;;;;;2.33;0.83;;;;;;;0.18;42.34;100759.13;6188164;28;20187;-75
2021/03/07 09:35:31;;;;;;;2.93;0.90;;;;;;;0.06;42.42;100754.94;6189378;28;20188;-75
2021/03/07 09:38:49;;;;;;;1.57;0.87;;;;;;;0.19;42.27;100776.88;6189233;28;20206;-75
2021/03/07 09:41:53;;;;;;;1.47;1.10;;;;;;;0.03;42.39;100771.38;6189440;28;20264;-74
2021/03/07 09:44:56;;;;;;;3.27;1.07;;;;;;;0.12;41.90;100765.06;6189154;28;20296;-76
2021/03/07 09:48:00;;;;;;;3.80;0.90;;;;;;;0.08;42.56;100779.81;6188731;28;20264;-75
2021/03/07 09:51:05;;;;;;;2.97;0.90;;;;;;;-0.02;42.11;100777.16;6187861;28;20379;-75
2021/03/07 09:54:11;;;;;;;4.43;1.10;;;;;;;0.07;42.22;100770.06;6188901;28;20251;-75
2021/03/07 09:57:20;;;;;;;1.70;1.30;;;;;;;0.09;41.86;100787.69;6187822;28;20220;-75
2021/03/07 10:00:24;;;;;;;2.60;1.00;;;;;;;0.04;42.57;100783.75;6187752;28;20449;-74
2021/03/07 10:03:32;;;;;;;1.10;0.80;;;;;;;0.20;42.35;100789.31;6187941;28;20246;-74
2021/03/07 10:06:35;;;;;;;4.50;1.00;;;;;;;0.10;41.50;100793.91;6189023;28;20187;-74
2021/03/07 10:09:55;;;;;;;1.20;1.07;;;;;;;0.25;42.15;100787.03;6188878;28;20238;-76
2021/03/07 10:13:00;;;;;;;1.80;0.90;;;;;;;0.29;41.79;100799.13;6189004;28;20253;-76
2021/03/07 10:16:06;;;;;;;0.93;0.70;;;;;;;0.07;42.40;100805.78;6188633;28;20253;-75
2021/03/07 10:19:14;;;;;;;0.87;0.87;;;;;;;0.25;42.28;100803.13;6188669;28;20188;-75
2021/03/07 10:22:19;;;;;;;1.60;1.30;;;;;;;0.36;42.70;100810.97;6188802;28;20189;-75
2021/03/07 10:25:25;;;;;;;5.40;2.10;;;;;;;0.37;41.39;100834.09;6187433;28;20531;-76
2021/03/07 10:28:30;;;;;;;7.73;2.33;;;;;;;0.48;41.39;100831.22;6188772;28;20304;-76
2021/03/07 10:31:33;;;;;;;13.50;2.70;;;;;;;0.35;41.33;100820.84;6189137;28;20453;-76
2021/03/07 10:34:40;;;;;;;1.07;1.07;;;;;;;0.31;41.48;100840.09;6192690;28;20230;-75
2021/03/07 10:37:44;;;;;;;1.10;1.10;;;;;;;0.41;41.39;100852.44;6191715;28;20190;-76
2021/03/07 10:40:47;;;;;;;5.87;2.10;;;;;;;0.38;41.92;100833.13;6192840;28;20304;-75
2021/03/07 10:43:54;;;;;;;5.53;4.40;;;;;;;0.50;41.31;100845.31;6192658;28;20220;-75
2021/03/07 10:47:12;;;;;;;3.43;1.90;;;;;;;0.59;41.15;100871.28;6191401;28;20473;-76
2021/03/07 10:50:15;;;;;;;3.50;2.10;;;;;;;0.67;41.10;100867.81;6191622;28;20215;-76
2021/03/07 10:53:19;;;;;;;6.90;1.30;;;;;;;0.63;40.68;100872.63;6192674;28;20189;-76
2021/03/07 10:56:28;;;;;;;2.70;0.90;;;;;;;0.66;41.67;100877.72;6190944;28;20196;-75
2021/03/07 10:59:32;;;;;;;3.87;1.10;;;;;;;0.66;41.52;100893.81;6191861;28;20189;-74
2021/03/07 11:02:35;;;;;;;1.40;1.30;;;;;;;0.66;41.15;100880.41;6191995;28;20204;-75
2021/03/07 11:05:40;;;;;;;6.80;1.13;;;;;;;0.70;41.17;100868.34;6191254;28;20188;-75
2021/03/07 11:08:43;;;;;;;2.77;0.90;;;;;;;0.59;40.83;100895.44;6190708;28;20213;-74
2021/03/07 11:11:46;;;;;;;4.67;1.00;;;;;;;0.88;41.55;100901.41;6191739;28;20326;-75
2021/03/07 11:14:50;;;;;;;4.07;1.00;;;;;;;0.96;40.98;100904.19;6191423;28;20237;-74
2021/03/07 11:17:53;;;;;;;3.30;1.20;;;;;;;0.89;40.68;100929.13;6192291;28;20304;-74
2021/03/07 11:20:57;;;;;;;1.20;1.20;;;;;;;0.74;40.53;100918.06;6192352;28;20223;-74
2021/03/07 11:24:00;;;;;;;1.47;0.90;;;;;;;0.81;40.82;100919.16;6192036;28;20220;-75
2021/03/07 11:27:04;;;;;;;1.13;1.13;;;;;;;0.91;40.50;100925.28;6190384;28;20221;-75
2021/03/07 11:30:10;;;;;;;5.00;1.30;;;;;;;0.81;40.98;100929.03;6191271;28;20232;-75
2021/03/07 11:33:21;;;;;;;2.43;1.00;;;;;;;0.81;41.37;100939.78;6190619;28;20190;-75
2021/03/07 11:36:24;;;;;;;6.33;1.10;;;;;;;0.91;40.14;100967.41;6191394;28;20221;-73
2021/03/07 11:39:28;;;;;;;9.07;1.40;;;;;;;0.83;41.07;100944.00;6190108;28;20453;-73
2021/03/07 11:42:31;;;;;;;0.83;0.83;;;;;;;0.86;40.13;100967.88;6190415;28;20197;-73
2021/03/07 11:45:36;;;;;;;3.60;1.53;;;;;;;0.80;40.46;100955.03;6191045;28;20190;-74
2021/03/07 11:48:40;;;;;;;2.43;1.10;;;;;;;0.81;41.08;100951.38;6189621;28;20417;-73
2021/03/07 11:51:43;;;;;;;1.43;1.37;;;;;;;0.88;40.59;100960.50;6189815;28;20213;-77
2021/03/07 11:54:47;;;;;;;2.77;1.20;;;;;;;0.88;40.40;100968.56;6190434;28;20194;-74
2021/03/07 11:57:50;;;;;;;1.90;1.77;;;;;;;0.90;39.94;100977.31;6189421;28;20190;-72
2021/03/07 12:00:54;;;;;;;1.00;1.00;;;;;;;0.78;39.81;100962.41;6190690;28;20194;-73
2021/03/07 12:04:03;;;;;;;2.20;1.90;;;;;;;0.86;40.29;100970.56;6189701;28;20242;-73
2021/03/07 12:07:06;;;;;;;2.80;1.10;;;;;;;0.92;39.87;100983.41;6190671;28;20201;-73
2021/03/07 12:10:14;;;;;;;1.43;1.07;;;;;;;0.93;40.09;100973.47;6190800;28;20212;-73
2021/03/07 12:13:17;;;;;;;3.83;1.50;;;;;;;1.10;40.02;100984.28;6188962;28;20401;-73
2021/03/07 12:16:22;;;;;;;1.37;1.20;;;;;;;0.91;39.78;100987.06;6189223;28;20410;-73
2021/03/07 12:19:26;;;;;;;3.87;1.30;;;;;;;0.85;39.47;100982.28;6189076;28;20383;-72
2021/03/07 12:22:29;;;;;;;1.53;1.20;;;;;;;0.78;39.88;101000.03;6190025;28;20254;-75
2021/03/07 12:25:33;;;;;;;1.03;1.03;;;;;;;0.69;39.59;100997.41;6189433;28;20198;-75
2021/03/07 12:28:36;;;;;;;1.40;1.03;;;;;;;0.83;40.06;101029.09;6188831;28;20389;-73
2021/03/07 12:31:41;;;;;;;1.30;1.20;;;;;;;0.81;39.95;101010.47;6189859;28;20221;-73
2021/03/07 12:34:44;;;;;;;1.50;1.03;;;;;;;0.83;39.71;101013.84;6190041;28;20193;-76
2021/03/07 12:37:47;;;;;;;3.20;1.03;;;;;;;0.82;39.82;101011.31;6189080;28;20189;-74
2021/03/07 12:40:53;;;;;;;0.90;0.90;;;;;;;0.95;39.80;101007.25;6188967;28;20205;-72
2021/03/07 12:43:56;;;;;;;1.50;1.40;;;;;;;0.94;39.63;101015.47;6188611;28;20538;-74
2021/03/07 12:47:00;;;;;;;1.40;1.30;;;;;;;0.95;40.19;100996.50;6189284;28;20190;-74
2021/03/07 12:50:05;;;;;;;1.20;1.20;;;;;;;1.05;39.83;101007.22;6189237;28;20196;-74
2021/03/07 12:53:13;;;;;;;2.13;1.30;;;;;;;1.17;39.74;101001.47;6188274;28;20201;-74
2021/03/07 12:56:17;;;;;;;4.13;1.20;;;;;;;1.04;39.78;101013.56;6189491;28;20190;-76
2021/03/07 12:59:20;;;;;;;7.37;1.40;;;;;;;0.98;39.86;101012.34;6189303;28;20212;-75
2021/03/07 13:02:25;;;;;;;1.20;1.20;;;;;;;0.96;39.71;101025.06;6189176;28;20212;-74
2021/03/07 13:05:28;;;;;;;4.80;1.20;;;;;;;0.97;40.10;101023.25;6189069;28;20241;-75
2021/03/07 13:08:31;;;;;;;2.97;0.97;;;;;;;0.92;40.10;101018.31;6189293;28;20195;-74
2021/03/07 13:11:35;;;;;;;6.23;1.00;;;;;;;1.05;39.45;101013.41;6188563;28;20233;-72
2021/03/07 13:14:38;;;;;;;2.50;0.70;;;;;;;0.97;39.75;101015.19;6188185;28;20460;-72
2021/03/07 13:17:42;;;;;;;4.63;1.03;;;;;;;1.04;39.96;101017.13;6189039;28;20219;-73
2021/03/07 13:20:47;;;;;;;1.30;1.20;;;;;;;1.03;40.25;101020.78;6188516;28;20194;-73
2021/03/07 13:23:50;;;;;;;0.90;0.90;;;;;;;1.04;40.53;101027.84;6189026;28;20190;-73
2021/03/07 13:26:53;;;;;;;9.30;2.07;;;;;;;1.09;40.74;101052.44;6188225;28;20424;-74
2021/03/07 13:29:56;;;;;;;1.27;1.17;;;;;;;1.04;41.00;101054.72;6187894;28;20189;-73
2021/03/07 13:33:01;;;;;;;5.40;1.30;;;;;;;1.05;40.55;101061.78;6188674;28;20224;-73
2021/03/07 13:36:05;;;;;;;1.03;0.90;;;;;;;1.18;40.93;101062.25;6187952;28;20212;-74
2021/03/07 13:39:09;;;;;;;1.00;1.00;;;;;;;0.96;40.73;101089.56;6189353;28;20237;-76
2021/03/07 13:42:12;;;;;;;1.63;1.10;;;;;;;0.76;41.54;101069.16;6189245;28;20193;-73
2021/03/07 13:45:16;;;;;;;1.47;0.90;;;;;;;0.96;41.38;101070.75;6187745;28;20382;-74
2021/03/07 13:48:22;;;;;;;6.77;1.30;;;;;;;0.84;41.93;101071.94;6188498;28;20196;-73
2021/03/07 13:51:40;;;;;;;4.73;1.00;;;;;;;0.94;42.25;101075.44;6188886;28;20213;-74
2021/03/07 13:54:44;;;;;;;11.83;1.47;;;;;;;0.92;42.39;101072.06;6188802;28;20197;-74
2021/03/07 13:57:47;;;;;;;4.80;1.43;;;;;;;0.91;42.25;101086.47;6189306;28;20229;-74
2021/03/07 14:00:50;;;;;;;1.10;1.10;;;;;;;1.04;42.00;101097.72;6189268;28;20212;-74
2021/03/07 14:03:59;;;;;;;1.00;1.00;;;;;;;0.98;42.47;101082.19;6187551;28;20424;-74
2021/03/07 14:07:02;;;;;;;1.50;0.97;;;;;;;1.07;41.91;101092.06;6191104;28;20194;-74
2021/03/07 14:10:11;;;;;;;2.37;1.17;;;;;;;1.08;41.64;101082.13;6192535;28;20365;-74
2021/03/07 14:13:15;;;;;;;3.13;1.10;;;;;;;1.05;41.99;101099.41;6192380;28;20269;-74
2021/03/07 14:16:18;;;;;;;7.00;1.30;;;;;;;1.22;42.02;101104.00;6192146;28;20220;-73
2021/03/07 14:19:22;;;;;;;1.20;1.10;;;;;;;1.26;41.83;101112.56;6192099;28;20189;-74
2021/03/07 14:22:26;;;;;;;3.07;1.10;;;;;;;1.07;42.26;101113.56;6192735;28;20193;-73
2021/03/07 14:25:29;;;;;;;5.77;1.23;;;;;;;1.15;42.03;101116.34;6194525;28;20197;-74
2021/03/07 14:28:33;;;;;;;3.30;1.30;;;;;;;1.13;42.31;101112.94;6193125;28;20190;-75
2021/03/07 14:31:36;;;;;;;4.03;1.33;;;;;;;1.24;42.09;101093.91;6192777;28;20245;-73
2021/03/07 14:34:41;;;;;;;4.60;0.90;;;;;;;1.20;41.47;101114.06;6192659;28;20196;-74